createdAt,value
2022-10-18T00:01:25.555Z,79.01
2022-10-18T00:03:53.113Z,79.16
2022-10-18T00:06:20.677Z,78.78
2022-10-18T00:08:48.321Z,78.96
2022-10-18T00:11:15.886Z,78.73
2022-10-18T00:13:44.895Z,78.97
2022-10-18T00:16:12.527Z,79.12
2022-10-18T00:18:40.127Z,78.71
2022-10-18T00:21:07.701Z,78.55
2022-10-18T00:23:35.295Z,78.56
2022-10-18T00:26:03.193Z,78.61
2022-10-18T00:28:30.786Z,78.81
2022-10-18T00:30:58.412Z,78.63
2022-10-18T00:33:25.953Z,78.51
2022-10-18T00:35:54.142Z,78.96
2022-10-18T00:38:22.049Z,78.42
2022-10-18T00:40:49.584Z,78.49
2022-10-18T00:43:17.274Z,78.35
2022-10-18T00:45:44.876Z,78.70
2022-10-18T00:48:12.454Z,78.86
2022-10-18T00:50:40.728Z,78.68
2022-10-18T00:53:08.319Z,78.96
2022-10-18T00:55:35.887Z,78.39
2022-10-18T00:58:03.946Z,78.86
2022-10-18T01:00:31.549Z,78.58
2022-10-18T01:02:59.696Z,78.31
2022-10-18T01:05:27.238Z,78.92
2022-10-18T01:07:54.825Z,78.87
2022-10-18T01:10:22.423Z,78.54
2022-10-18T01:12:49.984Z,78.97
2022-10-18T01:15:18.123Z,78.51
2022-10-18T01:17:45.705Z,78.73
2022-10-18T01:20:13.246Z,78.87
2022-10-18T01:22:40.793Z,78.52
2022-10-18T01:25:08.336Z,78.67
2022-10-18T01:27:36.456Z,78.63
2022-10-18T01:30:04.025Z,78.87
2022-10-18T01:32:31.587Z,78.46
2022-10-18T01:34:59.136Z,78.93
2022-10-18T01:37:26.745Z,78.56
2022-10-18T01:39:55.001Z,78.93
2022-10-18T01:42:22.558Z,79.18
2022-10-18T01:44:50.128Z,79.18
2022-10-18T01:47:17.664Z,79.28
2022-10-18T01:49:45.222Z,79.15
2022-10-18T01:52:13.138Z,79.19
2022-10-18T01:54:40.679Z,78.51
2022-10-18T01:57:08.763Z,78.74
2022-10-18T01:59:36.335Z,78.81
2022-10-18T02:02:04.357Z,79.16
2022-10-18T02:04:32.487Z,79.17
2022-10-18T02:07:00.079Z,79.12
2022-10-18T02:09:27.643Z,79.00
2022-10-18T02:11:55.179Z,78.79
2022-10-18T02:14:23.443Z,79.39
2022-10-18T02:16:51.315Z,78.75
2022-10-18T02:19:18.935Z,79.25
2022-10-18T02:21:46.667Z,78.80
2022-10-18T02:24:14.706Z,79.19
2022-10-18T02:26:42.249Z,79.36
2022-10-18T02:29:10.261Z,79.33
2022-10-18T02:31:37.783Z,79.21
2022-10-18T02:34:05.312Z,79.04
2022-10-18T02:36:32.927Z,79.15
2022-10-18T02:39:00.476Z,78.99
2022-10-18T02:41:28.611Z,79.37
2022-10-18T02:43:56.211Z,79.57
2022-10-18T02:46:23.810Z,79.26
2022-10-18T02:48:51.395Z,79.44
2022-10-18T02:51:18.949Z,79.27
2022-10-18T02:53:47.061Z,79.38
2022-10-18T02:56:14.577Z,79.91
2022-10-18T02:58:42.142Z,79.38
2022-10-18T03:01:09.721Z,79.19
2022-10-18T03:03:37.289Z,79.90
2022-10-18T03:06:06.840Z,79.25
2022-10-18T03:08:34.384Z,79.12
2022-10-18T03:11:01.926Z,79.51
2022-10-18T03:16:02.373Z,79.73
2022-10-18T03:18:30.296Z,79.65
2022-10-18T03:20:57.870Z,79.50
2022-10-18T03:23:25.461Z,79.62
2022-10-18T03:25:52.966Z,79.75
2022-10-18T03:28:20.856Z,79.58
2022-10-18T03:30:48.963Z,79.38
2022-10-18T03:33:16.467Z,79.46
2022-10-18T03:35:44.054Z,79.57
2022-10-18T03:38:11.607Z,79.79
2022-10-18T03:40:39.215Z,79.24
2022-10-18T03:43:07.299Z,78.90
2022-10-18T03:45:35.929Z,79.22
2022-10-18T03:48:03.475Z,79.67
2022-10-18T03:50:31.086Z,79.51
2022-10-18T03:52:58.647Z,79.21
2022-10-18T03:55:26.757Z,79.19
2022-10-18T03:57:54.309Z,79.67
2022-10-18T04:00:22.810Z,79.48
2022-10-18T04:02:53.343Z,79.49
2022-10-18T04:05:24.445Z,79.59
2022-10-18T04:07:52.654Z,79.51
2022-10-18T04:10:20.211Z,79.49
2022-10-18T04:12:48.188Z,79.75
2022-10-18T04:15:15.750Z,79.95
2022-10-18T04:17:43.287Z,79.61
2022-10-18T04:20:11.531Z,79.45
2022-10-18T04:22:39.103Z,79.11
2022-10-18T04:25:06.664Z,79.69
2022-10-18T04:27:34.514Z,80.04
2022-10-18T04:30:02.313Z,79.95
2022-10-18T04:32:30.395Z,79.54
2022-10-18T04:34:58.396Z,79.55
2022-10-18T04:37:25.979Z,79.49
2022-10-18T04:39:53.897Z,79.52
2022-10-18T04:42:21.631Z,79.71
2022-10-18T04:44:49.519Z,79.70
2022-10-18T04:47:17.087Z,79.42
2022-10-18T04:49:44.648Z,79.82
2022-10-18T04:52:12.252Z,79.40
2022-10-18T04:54:39.789Z,80.05
2022-10-18T04:57:09.345Z,79.15
2022-10-18T04:59:37.298Z,79.72
2022-10-18T05:02:04.952Z,79.46
2022-10-18T05:04:32.627Z,79.19
2022-10-18T05:07:00.170Z,79.81
2022-10-18T05:09:28.359Z,79.55
2022-10-18T05:11:55.945Z,79.82
2022-10-18T05:14:23.476Z,79.63
2022-10-18T05:16:51.103Z,79.25
2022-10-18T05:19:18.697Z,79.57
2022-10-18T05:21:46.265Z,79.79
2022-10-18T05:24:13.818Z,79.70
2022-10-18T05:26:41.442Z,79.18
2022-10-18T05:29:09.139Z,79.43
2022-10-18T05:31:36.831Z,79.77
2022-10-18T05:34:04.770Z,79.53
2022-10-18T05:36:32.383Z,79.43
2022-10-18T05:39:02.563Z,79.33
2022-10-18T05:41:32.527Z,79.25
2022-10-18T05:44:00.086Z,79.83
2022-10-18T05:46:28.639Z,79.52
2022-10-18T05:48:56.214Z,79.28
2022-10-18T05:51:23.805Z,79.41
2022-10-18T05:53:51.429Z,79.83
2022-10-18T05:56:19.076Z,79.85
2022-10-18T05:58:46.939Z,79.47
2022-10-18T06:01:14.547Z,79.83
2022-10-18T06:03:42.160Z,79.90
2022-10-18T06:06:10.085Z,79.26
2022-10-18T06:08:37.677Z,79.26
2022-10-18T06:11:05.842Z,80.02
2022-10-18T06:13:33.918Z,79.96
2022-10-18T06:16:01.653Z,79.66
2022-10-18T06:18:29.974Z,79.47
2022-10-18T06:20:57.617Z,79.81
2022-10-18T06:23:27.233Z,79.43
2022-10-18T06:25:54.811Z,79.77
2022-10-18T06:28:22.473Z,79.96
2022-10-18T06:30:50.072Z,79.87
2022-10-18T06:33:17.796Z,79.27
2022-10-18T06:35:46.049Z,79.58
2022-10-18T06:38:13.631Z,79.60
2022-10-18T06:40:41.346Z,79.47
2022-10-18T06:43:20.444Z,79.18
2022-10-18T06:45:49.473Z,79.36
2022-10-18T06:48:17.111Z,79.75
2022-10-18T06:50:44.705Z,79.40
2022-10-18T06:53:12.371Z,79.72
2022-10-18T06:55:40.163Z,79.58
2022-10-18T06:58:08.368Z,79.61
2022-10-18T07:00:36.083Z,79.76
2022-10-18T07:03:03.674Z,79.82
2022-10-18T07:08:04.336Z,79.79
2022-10-18T07:10:32.125Z,80.07
2022-10-18T07:13:26.931Z,79.41
2022-10-18T07:15:47.610Z,79.58
2022-10-18T07:18:15.431Z,80.00
2022-10-18T07:20:43.904Z,79.29
2022-10-18T07:23:12.034Z,80.21
2022-10-18T07:25:39.966Z,80.07
2022-10-18T07:28:07.677Z,79.44
2022-10-18T07:30:35.501Z,79.60
2022-10-18T07:33:03.256Z,79.96
2022-10-18T07:35:31.098Z,79.88
2022-10-18T07:37:58.900Z,79.81
2022-10-18T07:40:26.619Z,79.40
2022-10-18T07:42:54.327Z,79.32
2022-10-18T07:45:22.850Z,79.59
2022-10-18T07:47:50.682Z,79.79
2022-10-18T07:50:18.416Z,79.13
2022-10-18T07:52:46.331Z,79.49
2022-10-18T07:55:14.051Z,79.29
2022-10-18T07:57:42.006Z,79.76
2022-10-18T08:00:09.819Z,79.90
2022-10-18T08:02:37.523Z,79.93
2022-10-18T08:05:05.222Z,79.71
2022-10-18T08:07:33.998Z,79.53
2022-10-18T08:10:04.147Z,78.98
2022-10-18T08:12:31.850Z,79.93
2022-10-18T08:14:59.741Z,79.59
2022-10-18T08:17:27.480Z,79.50
2022-10-18T08:20:11.581Z,79.56
2022-10-18T08:22:40.853Z,79.27
2022-10-18T08:25:08.679Z,79.62
2022-10-18T08:27:36.489Z,79.51
2022-10-18T08:30:04.824Z,79.10
2022-10-18T08:32:33.000Z,79.15
2022-10-18T08:35:03.310Z,79.61
2022-10-18T08:37:33.636Z,79.32
2022-10-18T08:40:01.884Z,79.04
2022-10-18T08:42:29.943Z,78.77
2022-10-18T08:44:58.014Z,78.93
2022-10-18T08:47:26.473Z,78.81
2022-10-18T08:49:54.274Z,78.66
2022-10-18T08:52:22.512Z,78.44
2022-10-18T08:54:50.199Z,78.63
2022-10-18T08:57:18.289Z,78.60
2022-10-18T08:59:46.681Z,78.58
2022-10-18T09:02:14.553Z,78.46
2022-10-18T09:04:42.325Z,78.43
2022-10-18T09:07:10.173Z,79.11
2022-10-18T09:09:37.842Z,78.54
2022-10-18T09:12:06.147Z,78.96
2022-10-18T09:14:34.328Z,79.24
2022-10-18T09:17:02.144Z,78.89
2022-10-18T09:19:29.878Z,78.95
2022-10-18T09:21:57.675Z,78.84
2022-10-18T09:24:25.819Z,78.90
2022-10-18T09:26:53.742Z,78.63
2022-10-18T09:29:21.624Z,78.89
2022-10-18T09:31:49.481Z,79.24
2022-10-18T09:34:17.329Z,78.94
2022-10-18T09:36:46.418Z,78.90
2022-10-18T09:39:14.240Z,79.00
2022-10-18T09:41:41.911Z,78.87
2022-10-18T09:44:09.831Z,78.75
2022-10-18T09:46:37.672Z,78.59
2022-10-18T09:49:06.124Z,78.78
2022-10-18T09:51:33.863Z,78.95
2022-10-18T09:54:01.687Z,79.21
2022-10-18T09:56:29.431Z,78.92
2022-10-18T09:58:57.716Z,78.73
2022-10-18T10:01:25.959Z,78.68
2022-10-18T10:03:53.762Z,78.69
2022-10-18T10:06:21.717Z,78.83
2022-10-18T10:08:49.516Z,78.92
2022-10-18T10:11:17.439Z,78.63
2022-10-18T10:13:45.678Z,78.16
2022-10-18T10:16:13.595Z,78.20
2022-10-18T10:18:41.602Z,78.18
2022-10-18T10:21:09.655Z,78.10
2022-10-18T10:23:37.467Z,78.11
2022-10-18T10:26:05.918Z,77.98
2022-10-18T10:28:33.853Z,78.10
2022-10-18T10:31:01.759Z,78.49
2022-10-18T10:33:29.567Z,78.06
2022-10-18T10:35:57.522Z,78.58
2022-10-18T10:38:26.212Z,78.37
2022-10-18T10:40:54.092Z,77.96
2022-10-18T10:43:39.416Z,78.10
2022-10-18T10:46:07.992Z,78.22
2022-10-18T10:48:36.577Z,77.78
2022-10-18T10:51:04.520Z,77.97
2022-10-18T10:53:32.321Z,77.99
2022-10-18T10:56:00.194Z,78.12
2022-10-18T10:58:27.954Z,78.47
2022-10-18T11:00:55.840Z,78.59
2022-10-18T11:03:29.046Z,77.88
2022-10-18T11:05:58.092Z,78.23
2022-10-18T11:08:25.931Z,78.20
2022-10-18T11:10:53.765Z,77.61
2022-10-18T11:13:23.863Z,77.48
2022-10-18T11:15:51.691Z,77.14
2022-10-18T11:18:19.754Z,76.32
2022-10-18T11:20:48.232Z,75.98
2022-10-18T11:23:16.222Z,76.27
2022-10-18T11:25:45.694Z,76.20
2022-10-18T11:28:13.499Z,75.94
2022-10-18T11:30:41.404Z,76.17
2022-10-18T11:33:09.229Z,76.78
2022-10-18T11:35:38.993Z,77.10
2022-10-18T11:38:07.563Z,77.19
2022-10-18T11:40:35.365Z,77.58
2022-10-18T11:43:03.184Z,77.79
2022-10-18T11:48:03.717Z,76.87
2022-10-18T11:50:32.086Z,77.28
2022-10-18T11:52:59.844Z,76.46
2022-10-18T11:55:32.001Z,76.49
2022-10-18T11:58:00.999Z,75.83
2022-10-18T12:00:28.715Z,75.44
2022-10-18T12:02:57.566Z,75.11
2022-10-18T12:05:25.551Z,73.85
2022-10-18T12:07:53.330Z,73.64
2022-10-18T12:10:31.510Z,73.63
2022-10-18T12:13:09.646Z,73.65
2022-10-18T12:15:37.573Z,73.46
2022-10-18T12:18:05.420Z,72.74
2022-10-18T12:20:33.558Z,72.61
2022-10-18T12:23:02.021Z,71.75
2022-10-18T12:25:30.417Z,71.33
2022-10-18T12:27:58.332Z,70.68
2022-10-18T12:30:26.654Z,69.71
2022-10-18T12:33:10.028Z,69.39
2022-10-18T12:35:43.170Z,69.15
2022-10-18T12:38:10.915Z,69.95
2022-10-18T12:40:38.723Z,70.57
2022-10-18T12:43:06.612Z,71.38
2022-10-18T12:45:35.240Z,71.34
2022-10-18T12:48:03.306Z,70.66
2022-10-18T12:50:31.657Z,70.52
2022-10-18T12:52:59.531Z,70.06
2022-10-18T12:55:27.363Z,69.89
2022-10-18T12:57:55.256Z,70.26
2022-10-18T13:00:23.631Z,70.69
2022-10-18T13:02:51.606Z,69.74
2022-10-18T13:05:33.665Z,69.75
2022-10-18T13:08:07.323Z,69.19
2022-10-18T13:10:36.887Z,69.60
2022-10-18T13:13:13.157Z,69.59
2022-10-18T13:15:42.198Z,69.18
2022-10-18T13:18:10.040Z,69.32
2022-10-18T13:20:38.603Z,69.66
2022-10-18T13:23:06.518Z,70.12
2022-10-18T13:25:34.279Z,70.46
2022-10-18T13:28:02.180Z,69.77
2022-10-18T13:30:30.059Z,69.68
2022-10-18T13:32:58.481Z,68.63
2022-10-18T13:35:26.194Z,67.92
2022-10-18T13:37:54.031Z,67.57
2022-10-18T13:40:21.789Z,66.88
2022-10-18T13:42:49.650Z,66.97
2022-10-18T13:45:18.026Z,67.25
2022-10-18T13:47:45.832Z,68.16
2022-10-18T13:50:13.753Z,68.79
2022-10-18T13:52:42.221Z,70.17
2022-10-18T13:55:10.123Z,70.67
2022-10-18T13:57:38.781Z,70.73
2022-10-18T14:00:06.641Z,70.60
2022-10-18T14:02:50.291Z,69.33
2022-10-18T14:05:24.949Z,68.83
2022-10-18T14:07:53.651Z,68.24
2022-10-18T14:10:26.756Z,67.07
2022-10-18T14:13:06.153Z,66.45
2022-10-18T14:15:34.354Z,66.92
2022-10-18T14:18:02.532Z,67.18
2022-10-18T14:20:30.493Z,66.77
2022-10-18T14:22:58.418Z,66.80
2022-10-18T14:25:26.316Z,66.32
2022-10-18T14:27:54.606Z,66.92
2022-10-18T14:30:22.721Z,66.32
2022-10-18T14:32:50.524Z,65.47
2022-10-18T14:35:34.059Z,64.58
2022-10-18T14:38:02.277Z,63.29
2022-10-18T14:40:30.283Z,62.44
2022-10-18T14:42:58.127Z,61.70
2022-10-18T14:45:26.006Z,61.20
2022-10-18T14:47:54.738Z,61.38
2022-10-18T14:50:22.543Z,60.75
2022-10-18T14:52:50.493Z,60.71
2022-10-18T14:55:18.378Z,60.12
2022-10-18T14:57:46.189Z,60.86
2022-10-18T15:00:14.089Z,61.02
2022-10-18T15:02:41.999Z,59.97
2022-10-18T15:05:10.304Z,60.33
2022-10-18T15:07:38.277Z,60.46
2022-10-18T15:10:06.091Z,60.02
2022-10-18T15:12:41.024Z,60.35
2022-10-18T15:15:13.984Z,60.26
2022-10-18T15:17:41.948Z,60.10
2022-10-18T15:20:09.779Z,61.70
2022-10-18T15:22:37.628Z,63.77
2022-10-18T15:25:05.338Z,65.56
2022-10-18T15:27:33.608Z,67.73
2022-10-18T15:30:03.414Z,68.67
2022-10-18T15:32:31.611Z,69.71
2022-10-18T15:34:59.835Z,70.51
2022-10-18T15:37:28.332Z,70.79
2022-10-18T15:39:56.576Z,71.26
2022-10-18T15:42:24.478Z,71.95
2022-10-18T15:44:52.409Z,72.68
2022-10-18T15:47:21.841Z,73.02
2022-10-18T15:49:51.185Z,72.90
2022-10-18T15:52:19.976Z,73.39
2022-10-18T15:57:17.924Z,73.94
2022-10-18T15:59:46.667Z,74.32
2022-10-18T16:02:14.427Z,74.75
2022-10-18T16:04:42.347Z,74.77
2022-10-18T16:07:10.217Z,74.66
2022-10-18T16:09:38.128Z,75.24
2022-10-18T16:12:06.088Z,75.39
2022-10-18T16:14:33.972Z,75.22
2022-10-18T16:17:02.310Z,75.84
2022-10-18T16:19:30.190Z,75.40
2022-10-18T16:22:02.286Z,75.66
2022-10-18T16:24:33.186Z,76.35
2022-10-18T16:27:01.009Z,76.10
2022-10-18T16:29:32.576Z,76.46
2022-10-18T16:32:00.330Z,76.77
2022-10-18T16:34:28.187Z,76.56
2022-10-18T16:36:55.915Z,77.21
2022-10-18T16:39:23.668Z,77.23
2022-10-18T16:41:53.089Z,77.20
2022-10-18T16:44:21.558Z,76.95
2022-10-18T16:46:52.400Z,77.32
2022-10-18T16:49:24.201Z,77.60
2022-10-18T16:51:53.272Z,77.48
2022-10-18T16:54:21.067Z,78.17
2022-10-18T16:56:50.433Z,78.50
2022-10-18T16:59:18.369Z,78.49
2022-10-18T17:01:46.274Z,78.38
2022-10-18T17:04:16.051Z,78.51
2022-10-18T17:06:43.748Z,78.44
2022-10-18T17:09:11.565Z,79.07
2022-10-18T17:11:39.423Z,79.21
2022-10-18T17:14:07.211Z,78.73
2022-10-18T17:16:35.566Z,79.15
2022-10-18T17:19:03.493Z,79.33
2022-10-18T17:21:31.625Z,78.96
2022-10-18T17:24:01.258Z,79.42
2022-10-18T17:26:30.189Z,79.90
2022-10-18T17:28:59.526Z,79.39
2022-10-18T17:31:27.481Z,79.50
2022-10-18T17:33:55.804Z,79.17
2022-10-18T17:36:23.669Z,80.12
2022-10-18T17:38:51.468Z,80.02
2022-10-18T17:41:20.195Z,79.72
2022-10-18T17:43:48.500Z,80.19
2022-10-18T17:46:16.527Z,79.68
2022-10-18T17:48:44.447Z,79.85
2022-10-18T17:51:12.271Z,80.44
2022-10-18T17:53:40.626Z,80.13
2022-10-18T17:56:08.567Z,80.25
2022-10-18T17:58:36.379Z,80.11
2022-10-18T18:01:04.209Z,80.01
2022-10-18T18:03:32.055Z,80.02
2022-10-18T18:06:00.624Z,80.44
2022-10-18T18:08:28.425Z,80.67
2022-10-18T18:10:56.808Z,80.18
2022-10-18T18:13:24.643Z,80.75
2022-10-18T18:15:52.401Z,80.59
2022-10-18T18:18:20.789Z,80.46
2022-10-18T18:20:48.614Z,80.78
2022-10-18T18:23:16.464Z,80.67
2022-10-18T18:25:44.456Z,80.95
2022-10-18T18:28:12.254Z,81.22
2022-10-18T18:30:40.596Z,81.16
2022-10-18T18:33:08.901Z,80.56
2022-10-18T18:35:36.763Z,80.92
2022-10-18T18:40:37.392Z,80.92
2022-10-18T18:43:12.525Z,81.27
2022-10-18T18:45:50.382Z,81.13
2022-10-18T18:48:19.857Z,81.14
2022-10-18T18:50:50.802Z,81.58
2022-10-18T18:53:20.267Z,81.35
2022-10-18T18:55:49.785Z,81.05
2022-10-18T18:58:17.582Z,81.10
2022-10-18T19:00:45.472Z,81.39
2022-10-18T19:03:13.368Z,81.76
2022-10-18T19:05:41.640Z,81.72
2022-10-18T19:08:09.780Z,81.56
2022-10-18T19:10:37.521Z,80.95
2022-10-18T19:13:05.328Z,81.67
2022-10-18T19:15:33.272Z,81.56
2022-10-18T19:18:01.797Z,81.72
2022-10-18T19:20:29.680Z,81.54
2022-10-18T19:22:57.540Z,81.49
2022-10-18T19:25:27.088Z,81.92
2022-10-18T19:27:54.974Z,82.05
2022-10-18T19:30:23.378Z,81.60
2022-10-18T19:32:58.671Z,81.86
2022-10-18T19:35:30.030Z,81.70
2022-10-18T19:37:57.897Z,82.09
2022-10-18T19:40:26.602Z,82.09
2022-10-18T19:42:54.479Z,82.31
2022-10-18T19:45:22.210Z,82.44
2022-10-18T19:47:49.951Z,82.21
2022-10-18T19:50:17.811Z,82.22
2022-10-18T19:52:45.974Z,82.16
2022-10-18T19:55:13.757Z,82.62
2022-10-18T19:57:42.075Z,82.32
2022-10-18T20:00:10.930Z,82.00
2022-10-18T20:02:39.168Z,82.03
2022-10-18T20:05:07.729Z,82.11
2022-10-18T20:07:35.423Z,82.05
2022-10-18T20:10:03.630Z,82.66
2022-10-18T20:12:31.614Z,82.46
2022-10-18T20:14:59.674Z,82.21
2022-10-18T20:17:27.705Z,82.42
2022-10-18T20:19:55.594Z,82.35
2022-10-18T20:22:23.444Z,82.42
2022-10-18T20:24:51.155Z,82.56
2022-10-18T20:27:19.030Z,82.76
2022-10-18T20:29:47.604Z,82.70
2022-10-18T20:32:15.340Z,83.05
2022-10-18T20:34:43.140Z,82.74
2022-10-18T20:37:11.000Z,82.60
2022-10-18T20:39:40.696Z,82.81
2022-10-18T20:42:09.110Z,83.15
2022-10-18T20:44:39.002Z,83.46
2022-10-18T20:47:06.813Z,83.00
2022-10-18T20:49:34.910Z,82.56
2022-10-18T20:52:02.731Z,83.26
2022-10-18T20:54:31.221Z,82.50
2022-10-18T20:56:59.096Z,82.56
2022-10-18T20:59:26.970Z,82.43
2022-10-18T21:01:55.049Z,83.05
2022-10-18T21:04:23.008Z,82.72
2022-10-18T21:06:51.278Z,83.02
2022-10-18T21:09:19.179Z,83.47
2022-10-18T21:11:47.062Z,83.09
2022-10-18T21:14:14.799Z,82.98
2022-10-18T21:16:43.516Z,83.36
2022-10-18T21:19:11.915Z,83.19
2022-10-18T21:21:39.831Z,83.39
2022-10-18T21:24:08.405Z,83.29
2022-10-18T21:26:36.209Z,83.21
2022-10-18T21:29:04.121Z,83.13
2022-10-18T21:31:32.776Z,83.28
2022-10-18T21:34:00.653Z,83.33
2022-10-18T21:36:28.314Z,83.32
2022-10-18T21:38:56.183Z,83.39
2022-10-18T21:41:24.026Z,83.85
2022-10-18T21:43:51.877Z,83.42
2022-10-18T21:46:19.665Z,83.55
2022-10-18T21:48:47.449Z,83.61
2022-10-18T21:51:15.209Z,83.32
2022-10-18T21:53:43.013Z,83.40
2022-10-18T21:56:11.768Z,83.20
2022-10-18T21:58:39.542Z,83.37
2022-10-18T22:01:07.426Z,83.41
2022-10-18T22:03:35.245Z,83.49
2022-10-18T22:06:03.311Z,83.06
2022-10-18T22:08:31.560Z,83.48
2022-10-18T22:10:59.320Z,83.19
2022-10-18T22:13:27.057Z,83.50
2022-10-18T22:15:54.726Z,83.23
2022-10-18T22:18:22.490Z,83.39
2022-10-18T22:20:50.954Z,83.44
2022-10-18T22:23:18.611Z,83.45
2022-10-18T22:25:46.330Z,83.80
2022-10-18T22:28:14.306Z,83.67
2022-10-18T22:30:41.951Z,83.34
2022-10-18T22:33:10.293Z,83.35
2022-10-18T22:35:38.047Z,83.75
2022-10-18T22:38:05.642Z,83.90
2022-10-18T22:40:33.308Z,83.62
2022-10-18T22:43:00.963Z,83.83
2022-10-18T22:45:29.215Z,84.08
2022-10-18T22:47:56.804Z,83.76
2022-10-18T22:50:24.396Z,83.63
2022-10-18T22:52:53.953Z,83.73
2022-10-18T22:55:22.298Z,83.87
2022-10-18T22:57:50.298Z,83.65
2022-10-18T23:00:17.922Z,84.08
2022-10-18T23:02:45.651Z,83.20
2022-10-18T23:05:13.193Z,83.61
2022-10-18T23:07:40.728Z,83.86
2022-10-18T23:10:08.679Z,83.66
2022-10-18T23:12:36.637Z,83.51
2022-10-18T23:15:04.234Z,83.96
2022-10-18T23:17:32.371Z,83.81
2022-10-18T23:20:00.118Z,83.88
2022-10-18T23:22:28.051Z,83.73
2022-10-18T23:24:55.664Z,84.06
2022-10-18T23:27:23.234Z,83.53
2022-10-18T23:29:50.852Z,83.75
2022-10-18T23:32:18.444Z,84.09
2022-10-18T23:34:47.066Z,83.77
2022-10-18T23:37:14.640Z,83.71
2022-10-18T23:39:42.316Z,83.55
2022-10-18T23:42:09.917Z,83.45
2022-10-18T23:44:37.473Z,83.46
2022-10-18T23:47:05.591Z,83.49
2022-10-18T23:49:33.187Z,83.52
2022-10-18T23:52:00.749Z,82.76
2022-10-18T23:54:28.362Z,83.15
2022-10-18T23:56:56.381Z,83.12
2022-10-18T23:59:24.589Z,83.11
